sensor_id;sensor_type;location;lat;lon;timestamp;temperature;humidity
79494;SHT31;68951;53.130;18.104;2023-06-14T00:00:44;16.56;60.20
79494;SHT31;68951;53.130;18.104;2023-06-14T00:03:31;16.58;60.28
79494;SHT31;68951;53.130;18.104;2023-06-14T00:05:58;16.59;60.37
79494;SHT31;68951;53.130;18.104;2023-06-14T00:08:25;16.64;60.47
79494;SHT31;68951;53.130;18.104;2023-06-14T00:10:52;16.68;60.59
79494;SHT31;68951;53.130;18.104;2023-06-14T00:13:19;16.76;60.64
79494;SHT31;68951;53.130;18.104;2023-06-14T00:15:46;16.85;60.74
79494;SHT31;68951;53.130;18.104;2023-06-14T00:18:14;16.92;60.78
79494;SHT31;68951;53.130;18.104;2023-06-14T00:20:41;16.98;60.80
79494;SHT31;68951;53.130;18.104;2023-06-14T00:23:09;17.00;60.80
79494;SHT31;68951;53.130;18.104;2023-06-14T00:25:36;17.04;60.80
79494;SHT31;68951;53.130;18.104;2023-06-14T00:28:03;17.05;60.80
79494;SHT31;68951;53.130;18.104;2023-06-14T00:30:30;17.07;60.80
79494;SHT31;68951;53.130;18.104;2023-06-14T00:32:57;17.10;60.80
79494;SHT31;68951;53.130;18.104;2023-06-14T00:35:24;17.13;60.80
79494;SHT31;68951;53.130;18.104;2023-06-14T00:37:51;17.11;60.79
79494;SHT31;68951;53.130;18.104;2023-06-14T00:40:21;17.08;60.80
79494;SHT31;68951;53.130;18.104;2023-06-14T00:42:48;17.07;60.81
79494;SHT31;68951;53.130;18.104;2023-06-14T00:45:15;17.05;60.85
79494;SHT31;68951;53.130;18.104;2023-06-14T00:47:42;17.02;60.90
79494;SHT31;68951;53.130;18.104;2023-06-14T00:50:09;16.96;60.90
79494;SHT31;68951;53.130;18.104;2023-06-14T00:52:37;16.91;61.00
79494;SHT31;68951;53.130;18.104;2023-06-14T00:55:05;16.86;61.07
79494;SHT31;68951;53.130;18.104;2023-06-14T00:57:33;16.86;61.14
79494;SHT31;68951;53.130;18.104;2023-06-14T01:00:04;16.85;61.20
79494;SHT31;68951;53.130;18.104;2023-06-14T01:02:36;16.83;61.24
79494;SHT31;68951;53.130;18.104;2023-06-14T01:05:04;16.83;61.32
79494;SHT31;68951;53.130;18.104;2023-06-14T01:16:02;16.67;62.21
79494;SHT31;68951;53.130;18.104;2023-06-14T01:18:31;16.69;62.41
79494;SHT31;68951;53.130;18.104;2023-06-14T01:20:59;16.70;62.50
79494;SHT31;68951;53.130;18.104;2023-06-14T01:23:32;16.69;62.64
79494;SHT31;68951;53.130;18.104;2023-06-14T01:25:59;16.70;62.80
79494;SHT31;68951;53.130;18.104;2023-06-14T01:28:29;16.74;62.81
79494;SHT31;68951;53.130;18.104;2023-06-14T01:30:59;16.74;62.73
79494;SHT31;68951;53.130;18.104;2023-06-14T01:33:30;16.70;62.69
79494;SHT31;68951;53.130;18.104;2023-06-14T01:35:59;16.63;62.75
79494;SHT31;68951;53.130;18.104;2023-06-14T01:38:29;16.56;62.88
79494;SHT31;68951;53.130;18.104;2023-06-14T01:40:57;16.52;62.96
79494;SHT31;68951;53.130;18.104;2023-06-14T01:43:26;16.52;63.10
79494;SHT31;68951;53.130;18.104;2023-06-14T01:45:57;16.52;63.23
79494;SHT31;68951;53.130;18.104;2023-06-14T01:48:26;16.50;63.30
79494;SHT31;68951;53.130;18.104;2023-06-14T01:50:53;16.46;63.30
79494;SHT31;68951;53.130;18.104;2023-06-14T01:53:20;16.43;63.30
79494;SHT31;68951;53.130;18.104;2023-06-14T01:55:47;16.42;63.30
79494;SHT31;68951;53.130;18.104;2023-06-14T01:58:15;16.43;63.26
79494;SHT31;68951;53.130;18.104;2023-06-14T02:00:43;16.41;63.25
79494;SHT31;68951;53.130;18.104;2023-06-14T02:03:11;16.37;63.21
79494;SHT31;68951;53.130;18.104;2023-06-14T02:05:39;16.37;63.24
79494;SHT31;68951;53.130;18.104;2023-06-14T02:08:06;16.40;63.25
79494;SHT31;68951;53.130;18.104;2023-06-14T02:10:33;16.41;63.20
79494;SHT31;68951;53.130;18.104;2023-06-14T02:13:01;16.39;63.23
79494;SHT31;68951;53.130;18.104;2023-06-14T02:15:27;16.37;63.29
79494;SHT31;68951;53.130;18.104;2023-06-14T02:18:00;16.35;63.27
79494;SHT31;68951;53.130;18.104;2023-06-14T02:20:29;16.28;63.30
79494;SHT31;68951;53.130;18.104;2023-06-14T02:22:57;16.24;63.37
79494;SHT31;68951;53.130;18.104;2023-06-14T02:25:24;16.24;63.40
79494;SHT31;68951;53.130;18.104;2023-06-14T02:27:51;16.23;63.40
79494;SHT31;68951;53.130;18.104;2023-06-14T02:30:18;16.21;63.40
79494;SHT31;68951;53.130;18.104;2023-06-14T02:32:44;16.16;63.37
79494;SHT31;68951;53.130;18.104;2023-06-14T02:35:11;16.13;63.42
79494;SHT31;68951;53.130;18.104;2023-06-14T02:37:39;16.13;63.50
79494;SHT31;68951;53.130;18.104;2023-06-14T02:40:07;16.17;63.65
79494;SHT31;68951;53.130;18.104;2023-06-14T02:42:35;16.22;63.70
79494;SHT31;68951;53.130;18.104;2023-06-14T02:45:02;16.24;63.61
79494;SHT31;68951;53.130;18.104;2023-06-14T02:47:30;16.31;63.55
79494;SHT31;68951;53.130;18.104;2023-06-14T02:49:57;16.33;63.50
79494;SHT31;68951;53.130;18.104;2023-06-14T02:52:24;16.35;63.50
79494;SHT31;68951;53.130;18.104;2023-06-14T02:54:51;16.32;63.42
79494;SHT31;68951;53.130;18.104;2023-06-14T02:57:18;16.25;63.40
79494;SHT31;68951;53.130;18.104;2023-06-14T02:59:45;16.19;63.39
79494;SHT31;68951;53.130;18.104;2023-06-14T03:02:12;16.13;63.39
79494;SHT31;68951;53.130;18.104;2023-06-14T03:04:39;16.10;63.38
79494;SHT31;68951;53.130;18.104;2023-06-14T03:07:07;16.08;63.38
79494;SHT31;68951;53.130;18.104;2023-06-14T03:09:37;16.04;63.37
79494;SHT31;68951;53.130;18.104;2023-06-14T03:12:05;16.01;63.39
79494;SHT31;68951;53.130;18.104;2023-06-14T03:14:36;15.97;63.38
79494;SHT31;68951;53.130;18.104;2023-06-14T03:17:03;15.91;63.40
79494;SHT31;68951;53.130;18.104;2023-06-14T03:19:31;15.90;63.40
79494;SHT31;68951;53.130;18.104;2023-06-14T03:21:58;15.88;63.44
79494;SHT31;68951;53.130;18.104;2023-06-14T03:24:25;15.87;63.50
79494;SHT31;68951;53.130;18.104;2023-06-14T03:26:55;15.85;63.51
79494;SHT31;68951;53.130;18.104;2023-06-14T03:29:22;15.87;63.57
79494;SHT31;68951;53.130;18.104;2023-06-14T03:31:59;15.88;63.61
79494;SHT31;68951;53.130;18.104;2023-06-14T03:34:28;15.93;63.69
79494;SHT31;68951;53.130;18.104;2023-06-14T03:36:55;15.96;63.69
79494;SHT31;68951;53.130;18.104;2023-06-14T03:39:22;16.01;63.71
79494;SHT31;68951;53.130;18.104;2023-06-14T03:41:49;16.05;63.72
79494;SHT31;68951;53.130;18.104;2023-06-14T03:44:17;16.11;63.70
79494;SHT31;68951;53.130;18.104;2023-06-14T03:46:45;16.14;63.70
79494;SHT31;68951;53.130;18.104;2023-06-14T03:49:12;16.15;63.69
79494;SHT31;68951;53.130;18.104;2023-06-14T03:51:39;16.14;63.71
79494;SHT31;68951;53.130;18.104;2023-06-14T03:54:07;16.09;63.78
79494;SHT31;68951;53.130;18.104;2023-06-14T03:56:34;16.05;63.81
79494;SHT31;68951;53.130;18.104;2023-06-14T03:59:01;15.99;63.92
79494;SHT31;68951;53.130;18.104;2023-06-14T04:01:28;15.90;64.02
79494;SHT31;68951;53.130;18.104;2023-06-14T04:03:56;15.86;64.12
79494;SHT31;68951;53.130;18.104;2023-06-14T04:06:24;15.84;64.31
79494;SHT31;68951;53.130;18.104;2023-06-14T04:09:00;15.85;64.46
79494;SHT31;68951;53.130;18.104;2023-06-14T04:11:28;15.90;64.50
79494;SHT31;68951;53.130;18.104;2023-06-14T04:13:56;15.96;64.53
79494;SHT31;68951;53.130;18.104;2023-06-14T04:16:23;15.98;64.58
79494;SHT31;68951;53.130;18.104;2023-06-14T04:18:51;15.99;64.69
79494;SHT31;68951;53.130;18.104;2023-06-14T04:21:19;16.06;64.76
79494;SHT31;68951;53.130;18.104;2023-06-14T04:23:46;16.11;64.80
79494;SHT31;68951;53.130;18.104;2023-06-14T04:26:13;16.17;64.92
79494;SHT31;68951;53.130;18.104;2023-06-14T04:28:40;16.25;64.97
79494;SHT31;68951;53.130;18.104;2023-06-14T04:31:07;16.33;65.00
79494;SHT31;68951;53.130;18.104;2023-06-14T04:33:37;16.32;64.98
79494;SHT31;68951;53.130;18.104;2023-06-14T04:36:10;16.31;64.90
79494;SHT31;68951;53.130;18.104;2023-06-14T04:38:40;16.28;64.90
79494;SHT31;68951;53.130;18.104;2023-06-14T04:41:07;16.28;64.91
79494;SHT31;68951;53.130;18.104;2023-06-14T04:43:38;16.26;65.07
79494;SHT31;68951;53.130;18.104;2023-06-14T04:46:05;16.18;65.23
79494;SHT31;68951;53.130;18.104;2023-06-14T04:48:37;16.25;65.34
79494;SHT31;68951;53.130;18.104;2023-06-14T04:51:07;16.36;65.33
79494;SHT31;68951;53.130;18.104;2023-06-14T04:53:35;16.41;65.21
79494;SHT31;68951;53.130;18.104;2023-06-14T04:56:03;16.53;65.07
79494;SHT31;68951;53.130;18.104;2023-06-14T04:58:30;16.62;64.94
79494;SHT31;68951;53.130;18.104;2023-06-14T05:00:58;16.59;64.77
79494;SHT31;68951;53.130;18.104;2023-06-14T05:03:26;16.64;64.63
79494;SHT31;68951;53.130;18.104;2023-06-14T05:05:53;16.76;64.50
79494;SHT31;68951;53.130;18.104;2023-06-14T05:08:21;16.89;64.44
79494;SHT31;68951;53.130;18.104;2023-06-14T05:10:52;16.98;64.40
79494;SHT31;68951;53.130;18.104;2023-06-14T05:13:19;17.03;64.38
79494;SHT31;68951;53.130;18.104;2023-06-14T05:15:47;17.01;64.25
79494;SHT31;68951;53.130;18.104;2023-06-14T05:18:15;17.01;64.20
79494;SHT31;68951;53.130;18.104;2023-06-14T05:20:42;17.06;64.21
79494;SHT31;68951;53.130;18.104;2023-06-14T05:23:09;17.15;64.17
79494;SHT31;68951;53.130;18.104;2023-06-14T05:25:43;17.23;64.07
79494;SHT31;68951;53.130;18.104;2023-06-14T05:28:11;17.31;63.95
79494;SHT31;68951;53.130;18.104;2023-06-14T05:30:38;17.37;63.87
79494;SHT31;68951;53.130;18.104;2023-06-14T05:33:06;17.43;63.79
79494;SHT31;68951;53.130;18.104;2023-06-14T05:35:33;17.48;63.70
79494;SHT31;68951;53.130;18.104;2023-06-14T05:38:00;17.50;63.69
79494;SHT31;68951;53.130;18.104;2023-06-14T05:40:28;17.52;63.65
79494;SHT31;68951;53.130;18.104;2023-06-14T05:42:55;17.52;63.60
79494;SHT31;68951;53.130;18.104;2023-06-14T05:45:22;17.49;63.59
79494;SHT31;68951;53.130;18.104;2023-06-14T05:47:49;17.52;63.53
79494;SHT31;68951;53.130;18.104;2023-06-14T05:50:16;17.54;63.50
79494;SHT31;68951;53.130;18.104;2023-06-14T05:52:43;17.62;63.45
79494;SHT31;68951;53.130;18.104;2023-06-14T05:55:10;17.70;63.35
79494;SHT31;68951;53.130;18.104;2023-06-14T05:57:38;17.80;63.22
79494;SHT31;68951;53.130;18.104;2023-06-14T06:00:06;17.89;63.08
79494;SHT31;68951;53.130;18.104;2023-06-14T06:02:37;17.92;62.90
79494;SHT31;68951;53.130;18.104;2023-06-14T06:05:04;17.91;62.75
79494;SHT31;68951;53.130;18.104;2023-06-14T06:07:32;17.90;62.60
79494;SHT31;68951;53.130;18.104;2023-06-14T06:09:59;17.98;62.48
79494;SHT31;68951;53.130;18.104;2023-06-14T06:12:26;18.13;62.37
79494;SHT31;68951;53.130;18.104;2023-06-14T06:14:53;18.31;62.25
79494;SHT31;68951;53.130;18.104;2023-06-14T06:17:20;18.49;62.09
79494;SHT31;68951;53.130;18.104;2023-06-14T06:19:47;18.65;61.88
79494;SHT31;68951;53.130;18.104;2023-06-14T06:22:14;18.73;61.70
79494;SHT31;68951;53.130;18.104;2023-06-14T06:24:41;18.86;61.53
79494;SHT31;68951;53.130;18.104;2023-06-14T06:27:07;19.00;61.28
79494;SHT31;68951;53.130;18.104;2023-06-14T06:29:35;19.06;60.97
79494;SHT31;68951;53.130;18.104;2023-06-14T06:32:02;19.10;60.73
79494;SHT31;68951;53.130;18.104;2023-06-14T06:34:29;19.23;60.61
79494;SHT31;68951;53.130;18.104;2023-06-14T06:36:56;19.35;60.33
79494;SHT31;68951;53.130;18.104;2023-06-14T06:39:23;19.48;59.96
79494;SHT31;68951;53.130;18.104;2023-06-14T06:41:49;19.59;59.64
79494;SHT31;68951;53.130;18.104;2023-06-14T06:44:16;19.69;59.37
79494;SHT31;68951;53.130;18.104;2023-06-14T06:46:43;19.70;59.04
79494;SHT31;68951;53.130;18.104;2023-06-14T06:49:10;19.71;58.77
79494;SHT31;68951;53.130;18.104;2023-06-14T06:51:43;19.75;58.54
79494;SHT31;68951;53.130;18.104;2023-06-14T06:54:34;19.74;58.31
79494;SHT31;68951;53.130;18.104;2023-06-14T06:57:01;19.81;58.20
79494;SHT31;68951;53.130;18.104;2023-06-14T06:59:28;19.85;57.99
79494;SHT31;68951;53.130;18.104;2023-06-14T07:01:55;19.89;57.79
79494;SHT31;68951;53.130;18.104;2023-06-14T07:04:22;19.90;57.59
79494;SHT31;68951;53.130;18.104;2023-06-14T07:06:49;19.96;57.41
79494;SHT31;68951;53.130;18.104;2023-06-14T07:09:16;20.01;57.23
79494;SHT31;68951;53.130;18.104;2023-06-14T07:11:43;20.02;57.07
79494;SHT31;68951;53.130;18.104;2023-06-14T07:14:11;20.01;56.96
79494;SHT31;68951;53.130;18.104;2023-06-14T07:16:38;20.08;56.88
79494;SHT31;68951;53.130;18.104;2023-06-14T07:19:07;20.14;56.70
79494;SHT31;68951;53.130;18.104;2023-06-14T07:21:35;20.20;56.54
79494;SHT31;68951;53.130;18.104;2023-06-14T07:24:07;20.24;56.38
79494;SHT31;68951;53.130;18.104;2023-06-14T07:26:34;20.25;56.31
79494;SHT31;68951;53.130;18.104;2023-06-14T07:29:02;20.20;56.41
79494;SHT31;68951;53.130;18.104;2023-06-14T07:31:29;20.15;56.51
79494;SHT31;68951;53.130;18.104;2023-06-14T07:33:56;20.14;56.67
79494;SHT31;68951;53.130;18.104;2023-06-14T07:36:23;20.20;56.73
79494;SHT31;68951;53.130;18.104;2023-06-14T07:38:50;20.27;56.81
79494;SHT31;68951;53.130;18.104;2023-06-14T07:41:17;20.31;56.72
79494;SHT31;68951;53.130;18.104;2023-06-14T07:43:44;20.34;56.68
79494;SHT31;68951;53.130;18.104;2023-06-14T07:46:11;20.31;56.53
79494;SHT31;68951;53.130;18.104;2023-06-14T07:48:38;20.33;56.33
79494;SHT31;68951;53.130;18.104;2023-06-14T07:51:05;20.40;56.02
79494;SHT31;68951;53.130;18.104;2023-06-14T07:53:32;20.50;55.74
79494;SHT31;68951;53.130;18.104;2023-06-14T07:55:59;20.59;55.46
79494;SHT31;68951;53.130;18.104;2023-06-14T07:58:26;20.70;55.28
79494;SHT31;68951;53.130;18.104;2023-06-14T08:00:53;20.83;55.06
79494;SHT31;68951;53.130;18.104;2023-06-14T08:03:20;20.92;54.79
79494;SHT31;68951;53.130;18.104;2023-06-14T08:05:47;21.00;54.48
79494;SHT31;68951;53.130;18.104;2023-06-14T08:08:14;21.07;54.22
79494;SHT31;68951;53.130;18.104;2023-06-14T08:10:40;21.10;53.98
79494;SHT31;68951;53.130;18.104;2023-06-14T08:13:08;21.22;53.85
79494;SHT31;68951;53.130;18.104;2023-06-14T08:15:36;21.33;53.58
79494;SHT31;68951;53.130;18.104;2023-06-14T08:18:03;21.42;53.39
79494;SHT31;68951;53.130;18.104;2023-06-14T08:20:30;21.51;53.25
79494;SHT31;68951;53.130;18.104;2023-06-14T08:22:58;21.51;53.11
79494;SHT31;68951;53.130;18.104;2023-06-14T08:25:25;21.51;53.00
79494;SHT31;68951;53.130;18.104;2023-06-14T08:27:52;21.52;52.74
79494;SHT31;68951;53.130;18.104;2023-06-14T08:30:19;21.46;52.54
79494;SHT31;68951;53.130;18.104;2023-06-14T08:32:46;21.44;52.50
79494;SHT31;68951;53.130;18.104;2023-06-14T08:35:13;21.45;52.43
79494;SHT31;68951;53.130;18.104;2023-06-14T08:37:40;21.50;52.33
79494;SHT31;68951;53.130;18.104;2023-06-14T08:40:17;21.60;52.22
79494;SHT31;68951;53.130;18.104;2023-06-14T08:42:47;21.65;52.00
79494;SHT31;68951;53.130;18.104;2023-06-14T08:45:20;21.67;51.85
79494;SHT31;68951;53.130;18.104;2023-06-14T08:47:49;21.76;51.80
79494;SHT31;68951;53.130;18.104;2023-06-14T08:50:21;21.91;51.70
79494;SHT31;68951;53.130;18.104;2023-06-14T08:52:51;22.09;51.51
79494;SHT31;68951;53.130;18.104;2023-06-14T08:55:23;22.15;51.17
79494;SHT31;68951;53.130;18.104;2023-06-14T08:57:54;22.23;50.97
79494;SHT31;68951;53.130;18.104;2023-06-14T09:00:28;22.38;50.77
79494;SHT31;68951;53.130;18.104;2023-06-14T09:02:54;22.50;50.57
79494;SHT31;68951;53.130;18.104;2023-06-14T09:05:25;22.63;50.41
79494;SHT31;68951;53.130;18.104;2023-06-14T09:07:53;22.70;50.36
79494;SHT31;68951;53.130;18.104;2023-06-14T09:10:22;22.57;50.27
79494;SHT31;68951;53.130;18.104;2023-06-14T09:12:50;22.51;50.20
79494;SHT31;68951;53.130;18.104;2023-06-14T09:15:17;22.48;50.13
79494;SHT31;68951;53.130;18.104;2023-06-14T09:17:44;22.40;50.14
79494;SHT31;68951;53.130;18.104;2023-06-14T09:20:11;22.40;50.19
79494;SHT31;68951;53.130;18.104;2023-06-14T09:22:45;22.27;50.16
79494;SHT31;68951;53.130;18.104;2023-06-14T09:25:12;22.24;50.24
79494;SHT31;68951;53.130;18.104;2023-06-14T09:27:41;22.23;50.27
79494;SHT31;68951;53.130;18.104;2023-06-14T09:30:09;22.16;50.22
79494;SHT31;68951;53.130;18.104;2023-06-14T09:32:37;22.24;50.30
79494;SHT31;68951;53.130;18.104;2023-06-14T09:35:08;22.32;50.24
79494;SHT31;68951;53.130;18.104;2023-06-14T09:37:36;22.34;50.09
79494;SHT31;68951;53.130;18.104;2023-06-14T09:40:06;22.48;49.97
79494;SHT31;68951;53.130;18.104;2023-06-14T09:42:33;22.62;49.74
79494;SHT31;68951;53.130;18.104;2023-06-14T09:45:02;22.65;49.47
79494;SHT31;68951;53.130;18.104;2023-06-14T09:47:30;22.67;49.17
79494;SHT31;68951;53.130;18.104;2023-06-14T09:49:57;22.73;49.13
79494;SHT31;68951;53.130;18.104;2023-06-14T09:52:25;22.99;49.10
79494;SHT31;68951;53.130;18.104;2023-06-14T09:54:53;22.99;48.85
79494;SHT31;68951;53.130;18.104;2023-06-14T09:57:22;22.98;48.70
79494;SHT31;68951;53.130;18.104;2023-06-14T09:59:52;23.06;48.52
79494;SHT31;68951;53.130;18.104;2023-06-14T10:02:36;23.09;48.35
79494;SHT31;68951;53.130;18.104;2023-06-14T10:05:06;23.11;48.18
79494;SHT31;68951;53.130;18.104;2023-06-14T10:07:39;23.51;48.17
79494;SHT31;68951;53.130;18.104;2023-06-14T10:10:11;24.05;47.76
79494;SHT31;68951;53.130;18.104;2023-06-14T10:12:38;24.41;47.49
79494;SHT31;68951;53.130;18.104;2023-06-14T10:15:08;24.67;47.29
79494;SHT31;68951;53.130;18.104;2023-06-14T10:23:16;24.22;46.29
79494;SHT31;68951;53.130;18.104;2023-06-14T10:25:49;24.02;46.15
79494;SHT31;68951;53.130;18.104;2023-06-14T10:28:22;23.89;46.09
79494;SHT31;68951;53.130;18.104;2023-06-14T10:31:09;24.28;46.11
79494;SHT31;68951;53.130;18.104;2023-06-14T10:38:59;25.69;45.18
79494;SHT31;68951;53.130;18.104;2023-06-14T10:41:38;25.83;44.94
79494;SHT31;68951;53.130;18.104;2023-06-14T10:46:48;26.20;44.26
79494;SHT31;68951;53.130;18.104;2023-06-14T10:49:18;26.56;43.79
79494;SHT31;68951;53.130;18.104;2023-06-14T10:51:50;26.64;43.28
79494;SHT31;68951;53.130;18.104;2023-06-14T10:54:21;26.83;43.00
79494;SHT31;68951;53.130;18.104;2023-06-14T10:56:49;27.42;42.77
79494;SHT31;68951;53.130;18.104;2023-06-14T10:59:19;27.86;42.00
79494;SHT31;68951;53.130;18.104;2023-06-14T11:04:52;28.20;40.65
79494;SHT31;68951;53.130;18.104;2023-06-14T11:13:13;28.51;39.10
79494;SHT31;68951;53.130;18.104;2023-06-14T11:15:44;28.65;39.02
79494;SHT31;68951;53.130;18.104;2023-06-14T11:18:14;28.46;38.68
79494;SHT31;68951;53.130;18.104;2023-06-14T11:20:45;28.45;38.65
79494;SHT31;68951;53.130;18.104;2023-06-14T11:23:13;28.19;38.54
79494;SHT31;68951;53.130;18.104;2023-06-14T11:25:39;27.94;38.58
79494;SHT31;68951;53.130;18.104;2023-06-14T11:28:06;27.87;38.73
79494;SHT31;68951;53.130;18.104;2023-06-14T11:30:33;27.79;38.80
79494;SHT31;68951;53.130;18.104;2023-06-14T11:33:00;27.96;38.81
79494;SHT31;68951;53.130;18.104;2023-06-14T11:35:27;27.80;38.82
79494;SHT31;68951;53.130;18.104;2023-06-14T11:37:55;27.74;38.89
79494;SHT31;68951;53.130;18.104;2023-06-14T11:40:26;27.54;38.73
79494;SHT31;68951;53.130;18.104;2023-06-14T11:43:00;27.41;38.84
79494;SHT31;68951;53.130;18.104;2023-06-14T11:45:29;27.82;38.95
79494;SHT31;68951;53.130;18.104;2023-06-14T11:47:57;27.82;38.86
79494;SHT31;68951;53.130;18.104;2023-06-14T11:50:26;27.69;38.74
79494;SHT31;68951;53.130;18.104;2023-06-14T11:52:54;27.51;38.62
79494;SHT31;68951;53.130;18.104;2023-06-14T11:55:23;27.20;38.67
79494;SHT31;68951;53.130;18.104;2023-06-14T11:57:53;26.83;38.71
79494;SHT31;68951;53.130;18.104;2023-06-14T12:00:24;26.45;38.81
79494;SHT31;68951;53.130;18.104;2023-06-14T12:02:53;26.20;39.01
79494;SHT31;68951;53.130;18.104;2023-06-14T12:05:25;25.91;39.18
79494;SHT31;68951;53.130;18.104;2023-06-14T12:07:58;25.77;39.55
79494;SHT31;68951;53.130;18.104;2023-06-14T12:10:29;25.65;39.91
79494;SHT31;68951;53.130;18.104;2023-06-14T12:12:57;25.35;39.81
79494;SHT31;68951;53.130;18.104;2023-06-14T12:15:28;25.14;40.17
79494;SHT31;68951;53.130;18.104;2023-06-14T12:17:58;24.89;40.15
79494;SHT31;68951;53.130;18.104;2023-06-14T12:20:28;24.55;40.13
79494;SHT31;68951;53.130;18.104;2023-06-14T12:23:02;24.24;40.24
79494;SHT31;68951;53.130;18.104;2023-06-14T12:28:09;23.80;40.72
79494;SHT31;68951;53.130;18.104;2023-06-14T12:30:37;23.73;40.84
79494;SHT31;68951;53.130;18.104;2023-06-14T12:33:04;23.68;40.96
79494;SHT31;68951;53.130;18.104;2023-06-14T12:35:32;23.66;41.02
79494;SHT31;68951;53.130;18.104;2023-06-14T12:38:00;23.45;41.22
79494;SHT31;68951;53.130;18.104;2023-06-14T12:40:27;23.21;41.79
79494;SHT31;68951;53.130;18.104;2023-06-14T12:42:54;22.99;42.27
79494;SHT31;68951;53.130;18.104;2023-06-14T12:45:20;22.84;42.62
79494;SHT31;68951;53.130;18.104;2023-06-14T12:47:48;22.65;42.98
79494;SHT31;68951;53.130;18.104;2023-06-14T12:50:16;22.53;43.23
79494;SHT31;68951;53.130;18.104;2023-06-14T12:52:43;22.49;43.35
79494;SHT31;68951;53.130;18.104;2023-06-14T12:55:09;22.43;43.51
79494;SHT31;68951;53.130;18.104;2023-06-14T12:57:36;22.40;43.67
79494;SHT31;68951;53.130;18.104;2023-06-14T13:00:04;22.39;43.80
79494;SHT31;68951;53.130;18.104;2023-06-14T13:02:33;22.36;43.94
79494;SHT31;68951;53.130;18.104;2023-06-14T13:05:01;22.36;44.02
79494;SHT31;68951;53.130;18.104;2023-06-14T13:07:30;22.35;44.07
79494;SHT31;68951;53.130;18.104;2023-06-14T13:09:57;22.32;44.10
79494;SHT31;68951;53.130;18.104;2023-06-14T13:12:24;22.30;44.18
79494;SHT31;68951;53.130;18.104;2023-06-14T13:14:51;22.29;44.33
79494;SHT31;68951;53.130;18.104;2023-06-14T13:17:18;22.26;44.82
79494;SHT31;68951;53.130;18.104;2023-06-14T13:19:45;22.20;45.27
79494;SHT31;68951;53.130;18.104;2023-06-14T13:22:12;22.09;45.68
79494;SHT31;68951;53.130;18.104;2023-06-14T13:24:39;21.97;46.14
79494;SHT31;68951;53.130;18.104;2023-06-14T13:27:06;21.77;46.66
79494;SHT31;68951;53.130;18.104;2023-06-14T13:29:33;21.59;47.12
79494;SHT31;68951;53.130;18.104;2023-06-14T13:32:02;21.43;47.51
79494;SHT31;68951;53.130;18.104;2023-06-14T13:34:30;21.27;47.85
79494;SHT31;68951;53.130;18.104;2023-06-14T13:36:57;21.16;48.14
79494;SHT31;68951;53.130;18.104;2023-06-14T13:39:25;21.08;48.50
79494;SHT31;68951;53.130;18.104;2023-06-14T13:41:52;21.02;48.81
79494;SHT31;68951;53.130;18.104;2023-06-14T13:44:19;20.95;49.10
79494;SHT31;68951;53.130;18.104;2023-06-14T13:46:47;20.86;49.30
79494;SHT31;68951;53.130;18.104;2023-06-14T13:49:14;20.80;49.58
79494;SHT31;68951;53.130;18.104;2023-06-14T13:51:41;20.73;49.82
79494;SHT31;68951;53.130;18.104;2023-06-14T13:54:08;20.63;50.12
79494;SHT31;68951;53.130;18.104;2023-06-14T13:56:35;20.58;50.47
79494;SHT31;68951;53.130;18.104;2023-06-14T13:59:02;20.56;50.89
79494;SHT31;68951;53.130;18.104;2023-06-14T14:01:29;20.50;51.36
79494;SHT31;68951;53.130;18.104;2023-06-14T14:03:57;20.44;51.87
79494;SHT31;68951;53.130;18.104;2023-06-14T14:06:24;20.40;52.30
79494;SHT31;68951;53.130;18.104;2023-06-14T14:08:51;20.36;52.77
79494;SHT31;68951;53.130;18.104;2023-06-14T14:11:19;20.32;53.35
79494;SHT31;68951;53.130;18.104;2023-06-14T14:13:46;20.30;53.80
79494;SHT31;68951;53.130;18.104;2023-06-14T14:16:13;20.27;54.28
79494;SHT31;68951;53.130;18.104;2023-06-14T14:18:42;20.27;54.91
79494;SHT31;68951;53.130;18.104;2023-06-14T14:21:09;20.28;55.54
79494;SHT31;68951;53.130;18.104;2023-06-14T14:23:36;20.29;55.86
79494;SHT31;68951;53.130;18.104;2023-06-14T14:26:03;20.34;56.14
79494;SHT31;68951;53.130;18.104;2023-06-14T14:28:31;20.37;56.24
79494;SHT31;68951;53.130;18.104;2023-06-14T14:30:59;20.39;56.04
79494;SHT31;68951;53.130;18.104;2023-06-14T14:33:26;20.43;55.51
79494;SHT31;68951;53.130;18.104;2023-06-14T14:35:53;20.48;54.97
79494;SHT31;68951;53.130;18.104;2023-06-14T14:38:20;20.50;54.42
79494;SHT31;68951;53.130;18.104;2023-06-14T14:40:48;20.51;53.83
79494;SHT31;68951;53.130;18.104;2023-06-14T14:43:15;20.52;53.24
79494;SHT31;68951;53.130;18.104;2023-06-14T14:45:42;20.51;52.76
79494;SHT31;68951;53.130;18.104;2023-06-14T14:48:09;20.48;52.35
79494;SHT31;68951;53.130;18.104;2023-06-14T14:50:36;20.45;51.99
79494;SHT31;68951;53.130;18.104;2023-06-14T14:53:03;20.47;51.78
79494;SHT31;68951;53.130;18.104;2023-06-14T14:55:32;20.50;51.68
79494;SHT31;68951;53.130;18.104;2023-06-14T14:58:02;20.53;51.61
79494;SHT31;68951;53.130;18.104;2023-06-14T15:00:29;20.53;51.45
79494;SHT31;68951;53.130;18.104;2023-06-14T15:02:56;20.53;51.35
79494;SHT31;68951;53.130;18.104;2023-06-14T15:05:23;20.50;51.36
79494;SHT31;68951;53.130;18.104;2023-06-14T15:07:50;20.41;51.43
79494;SHT31;68951;53.130;18.104;2023-06-14T15:10:17;20.38;51.58
79494;SHT31;68951;53.130;18.104;2023-06-14T15:12:44;20.31;51.72
79494;SHT31;68951;53.130;18.104;2023-06-14T15:15:11;20.21;51.95
79494;SHT31;68951;53.130;18.104;2023-06-14T15:17:38;20.14;52.19
79494;SHT31;68951;53.130;18.104;2023-06-14T15:20:05;20.09;52.55
79494;SHT31;68951;53.130;18.104;2023-06-14T15:22:33;20.14;52.92
79494;SHT31;68951;53.130;18.104;2023-06-14T15:25:00;20.33;53.17
79494;SHT31;68951;53.130;18.104;2023-06-14T15:27:27;20.39;53.31
79494;SHT31;68951;53.130;18.104;2023-06-14T15:29:54;20.51;53.40
79494;SHT31;68951;53.130;18.104;2023-06-14T15:32:21;20.58;53.35
79494;SHT31;68951;53.130;18.104;2023-06-14T15:34:48;20.60;53.37
79494;SHT31;68951;53.130;18.104;2023-06-14T15:37:15;20.52;53.52
79494;SHT31;68951;53.130;18.104;2023-06-14T15:39:42;20.50;53.70
79494;SHT31;68951;53.130;18.104;2023-06-14T15:42:08;20.51;53.83
79494;SHT31;68951;53.130;18.104;2023-06-14T15:44:36;20.46;53.94
79494;SHT31;68951;53.130;18.104;2023-06-14T15:47:02;20.38;54.12
79494;SHT31;68951;53.130;18.104;2023-06-14T15:49:30;20.21;54.43
79494;SHT31;68951;53.130;18.104;2023-06-14T15:51:56;20.27;54.59
79494;SHT31;68951;53.130;18.104;2023-06-14T15:54:24;20.40;54.64